createdAt,value
2022-07-29T00:02:12.065Z,99.99
2022-07-29T00:04:42.524Z,99.99
2022-07-29T00:07:13.937Z,99.99
2022-07-29T00:09:51.845Z,99.99
2022-07-29T00:12:26.684Z,99.99
2022-07-29T00:14:58.605Z,99.99
2022-07-29T00:17:29.100Z,99.99
2022-07-29T00:19:59.497Z,99.99
2022-07-29T00:22:29.381Z,99.99
2022-07-29T00:24:59.467Z,99.99
2022-07-29T00:27:29.871Z,99.99
2022-07-29T00:30:00.132Z,99.99
2022-07-29T00:32:30.103Z,99.99
2022-07-29T00:35:18.488Z,99.99
2022-07-29T00:37:49.126Z,99.99
2022-07-29T00:40:19.399Z,99.99
2022-07-29T00:42:54.902Z,99.99
2022-07-29T00:45:25.384Z,99.99
2022-07-29T00:47:56.213Z,99.99
2022-07-29T00:50:27.326Z,99.99
2022-07-29T00:52:57.976Z,99.99
2022-07-29T00:55:28.692Z,99.99
2022-07-29T00:58:00.825Z,99.99
2022-07-29T01:00:32.163Z,99.99
2022-07-29T01:03:03.165Z,99.99
2022-07-29T01:05:50.327Z,99.99
2022-07-29T01:08:22.939Z,99.99
2022-07-29T01:10:54.811Z,99.93
2022-07-29T01:13:25.595Z,99.77
2022-07-29T01:16:09.388Z,99.99
2022-07-29T01:18:46.910Z,99.54
2022-07-29T01:21:38.512Z,99.29
2022-07-29T01:24:33.204Z,98.63
2022-07-29T01:27:32.238Z,96.74
2022-07-29T01:30:05.573Z,96.55
2022-07-29T01:32:39.599Z,97.62
2022-07-29T01:35:41.117Z,98.17
2022-07-29T01:38:25.470Z,98.51
2022-07-29T01:41:22.088Z,99.11
2022-07-29T01:43:59.951Z,99.99
2022-07-29T01:46:44.071Z,99.99
2022-07-29T01:49:28.523Z,99.99
2022-07-29T01:52:13.821Z,99.10
2022-07-29T01:54:57.708Z,99.66
2022-07-29T01:57:34.441Z,99.95
2022-07-29T02:00:05.450Z,99.74
2022-07-29T02:02:43.927Z,99.99
2022-07-29T02:05:17.348Z,99.82
2022-07-29T02:07:50.367Z,99.88
2022-07-29T02:10:26.364Z,99.99
2022-07-29T02:12:59.886Z,99.99
2022-07-29T02:15:33.287Z,99.99
2022-07-29T02:18:18.510Z,99.99
2022-07-29T02:20:52.019Z,99.99
2022-07-29T02:23:24.526Z,99.99
2022-07-29T02:26:00.332Z,99.99
2022-07-29T02:28:32.837Z,99.99
2022-07-29T02:31:06.167Z,99.99
2022-07-29T02:33:38.713Z,99.99
2022-07-29T02:36:09.638Z,99.99
2022-07-29T02:38:52.934Z,99.99
2022-07-29T02:41:38.148Z,99.99
2022-07-29T02:44:18.542Z,99.99
2022-07-29T02:47:04.025Z,99.99
2022-07-29T02:49:54.797Z,99.99
2022-07-29T02:52:30.276Z,99.99
2022-07-29T02:55:21.715Z,99.99
2022-07-29T02:58:05.330Z,99.99
2022-07-29T03:00:40.240Z,99.99
2022-07-29T03:03:17.736Z,99.99
2022-07-29T03:05:48.179Z,99.99
2022-07-29T03:08:18.670Z,99.99
2022-07-29T03:10:50.116Z,99.99
2022-07-29T03:13:21.286Z,97.88
2022-07-29T03:15:52.568Z,98.19
2022-07-29T03:18:23.284Z,97.81
2022-07-29T03:20:53.813Z,96.44
2022-07-29T03:23:25.055Z,95.82
2022-07-29T03:25:55.936Z,96.12
2022-07-29T03:28:29.513Z,94.69
2022-07-29T03:31:00.023Z,95.73
2022-07-29T03:33:32.547Z,95.34
2022-07-29T03:36:05.183Z,94.41
2022-07-29T03:38:38.212Z,96.17
2022-07-29T03:41:12.503Z,94.27
2022-07-29T03:43:49.310Z,94.60
2022-07-29T03:46:23.592Z,93.73
2022-07-29T03:48:58.685Z,94.79
2022-07-29T03:51:33.656Z,95.38
2022-07-29T03:54:14.115Z,94.24
2022-07-29T03:56:50.812Z,90.55
2022-07-29T03:59:23.000Z,90.41
2022-07-29T04:01:54.157Z,91.36
2022-07-29T04:04:25.114Z,91.62
2022-07-29T04:06:57.720Z,89.81
2022-07-29T04:09:28.151Z,89.82
2022-07-29T04:12:03.346Z,90.28
2022-07-29T04:14:35.557Z,87.84
2022-07-29T04:17:07.784Z,87.83
2022-07-29T04:19:38.561Z,87.30
2022-07-29T04:22:09.044Z,87.88
2022-07-29T04:24:42.858Z,88.26
2022-07-29T04:27:14.737Z,88.30
2022-07-29T04:29:56.820Z,88.46
2022-07-29T04:32:28.950Z,88.80
2022-07-29T04:34:59.288Z,89.06
2022-07-29T04:37:30.047Z,90.15
2022-07-29T04:40:00.507Z,90.11
2022-07-29T04:42:30.568Z,90.17
2022-07-29T04:45:01.594Z,91.01
2022-07-29T04:47:32.022Z,90.75
2022-07-29T04:50:02.567Z,91.83
2022-07-29T04:52:33.029Z,91.41
2022-07-29T04:55:03.763Z,91.88
2022-07-29T04:57:34.108Z,91.98
2022-07-29T05:00:04.202Z,91.14
2022-07-29T05:02:34.610Z,90.66
2022-07-29T05:05:05.086Z,89.80
2022-07-29T05:07:35.786Z,90.30
2022-07-29T05:10:06.585Z,88.33
2022-07-29T05:12:36.931Z,89.37
2022-07-29T05:15:07.630Z,89.41
2022-07-29T05:17:38.089Z,90.00
2022-07-29T05:20:09.602Z,90.50
2022-07-29T05:22:40.141Z,89.66
2022-07-29T05:25:11.900Z,89.99
2022-07-29T05:27:42.405Z,90.49
2022-07-29T05:30:31.300Z,90.75
2022-07-29T05:33:01.877Z,90.11
2022-07-29T05:35:31.723Z,90.23
2022-07-29T05:38:02.163Z,91.77
2022-07-29T05:40:32.558Z,89.64
2022-07-29T05:43:02.970Z,90.48
2022-07-29T05:45:33.519Z,90.53
2022-07-29T05:48:19.582Z,90.55
2022-07-29T05:50:49.957Z,90.42
2022-07-29T05:53:20.839Z,89.65
2022-07-29T05:55:54.649Z,90.27
2022-07-29T05:58:25.489Z,91.33
2022-07-29T06:00:56.179Z,89.61
2022-07-29T06:03:25.916Z,89.94
2022-07-29T06:05:56.291Z,90.33
2022-07-29T06:08:26.634Z,90.30
2022-07-29T06:10:57.077Z,88.13
2022-07-29T06:13:27.438Z,88.90
2022-07-29T06:15:58.042Z,88.92
2022-07-29T06:18:29.707Z,87.13
2022-07-29T06:20:59.749Z,86.39
2022-07-29T06:23:29.983Z,87.11
2022-07-29T06:26:00.271Z,88.27
2022-07-29T06:28:30.728Z,86.03
2022-07-29T06:31:01.870Z,86.57
2022-07-29T06:33:32.391Z,86.85
2022-07-29T06:36:02.509Z,89.99
2022-07-29T06:38:34.411Z,87.60
2022-07-29T06:41:14.895Z,85.78
2022-07-29T06:43:52.417Z,86.26
2022-07-29T06:46:25.767Z,87.01
2022-07-29T06:48:55.909Z,87.36
2022-07-29T06:51:26.462Z,89.79
2022-07-29T06:53:58.159Z,88.50
2022-07-29T06:56:39.326Z,88.52
2022-07-29T06:59:11.707Z,90.33
2022-07-29T07:01:45.205Z,89.75
2022-07-29T07:04:15.782Z,89.45
2022-07-29T07:06:47.435Z,90.11
2022-07-29T07:09:17.832Z,91.30
2022-07-29T07:11:49.491Z,89.79
2022-07-29T07:14:21.059Z,89.55
2022-07-29T07:16:52.706Z,89.31
2022-07-29T07:19:25.357Z,89.94
2022-07-29T07:21:58.487Z,89.03
2022-07-29T07:24:28.919Z,88.09
2022-07-29T07:26:59.670Z,88.76
2022-07-29T07:29:30.175Z,87.66
2022-07-29T07:32:01.280Z,88.85
2022-07-29T07:34:32.475Z,88.97
2022-07-29T07:37:02.875Z,88.12
2022-07-29T07:39:33.751Z,89.55
2022-07-29T07:42:04.473Z,88.93
2022-07-29T07:44:51.359Z,89.21
2022-07-29T07:47:28.051Z,89.70
2022-07-29T07:49:59.131Z,90.58
2022-07-29T07:52:29.552Z,88.41
2022-07-29T07:54:59.925Z,89.50
2022-07-29T07:57:30.510Z,89.54
2022-07-29T08:00:00.839Z,89.84
2022-07-29T08:02:31.386Z,90.25
2022-07-29T08:05:02.064Z,89.50
2022-07-29T08:07:32.408Z,89.69
2022-07-29T08:10:03.003Z,89.78
2022-07-29T08:12:33.293Z,89.75
2022-07-29T08:15:03.768Z,89.83
2022-07-29T08:17:35.428Z,91.00
2022-07-29T08:20:06.791Z,89.84
2022-07-29T08:22:36.968Z,88.82
2022-07-29T08:25:07.827Z,89.94
2022-07-29T08:27:43.890Z,89.83
2022-07-29T08:30:14.817Z,89.63
2022-07-29T08:32:54.078Z,89.67
2022-07-29T08:35:26.240Z,89.56
2022-07-29T08:37:58.972Z,90.23
2022-07-29T08:40:32.324Z,88.84
2022-07-29T08:43:09.231Z,89.15
2022-07-29T08:45:48.498Z,89.41
2022-07-29T08:48:24.774Z,90.08
2022-07-29T08:50:59.349Z,89.95
2022-07-29T08:53:30.835Z,91.17
2022-07-29T08:56:01.983Z,91.51
2022-07-29T08:58:36.550Z,90.58
2022-07-29T09:01:10.811Z,89.07
2022-07-29T09:03:44.112Z,90.74
2022-07-29T09:06:20.105Z,90.84
2022-07-29T09:08:50.979Z,90.38
2022-07-29T09:11:21.799Z,89.48
2022-07-29T09:13:52.149Z,90.64
2022-07-29T09:16:43.790Z,90.98
2022-07-29T09:19:26.718Z,90.25
2022-07-29T09:22:03.328Z,89.14
2022-07-29T09:24:44.424Z,89.19
2022-07-29T09:27:22.580Z,87.90
2022-07-29T09:30:12.794Z,89.07
2022-07-29T09:33:06.682Z,89.83
2022-07-29T09:35:37.217Z,89.29
2022-07-29T09:38:17.086Z,89.34
2022-07-29T09:41:05.927Z,88.98
2022-07-29T09:43:37.916Z,90.17
2022-07-29T09:46:17.594Z,89.36
2022-07-29T09:49:08.141Z,89.04
2022-07-29T09:51:39.941Z,88.57
2022-07-29T09:54:27.827Z,90.49
2022-07-29T09:56:58.527Z,88.62
2022-07-29T09:59:30.477Z,88.61
2022-07-29T10:02:01.106Z,89.46
2022-07-29T10:04:44.960Z,89.21
2022-07-29T10:07:15.162Z,89.50
2022-07-29T10:09:57.077Z,89.01
2022-07-29T10:12:27.619Z,88.76
2022-07-29T10:14:58.374Z,89.19
2022-07-29T10:17:28.861Z,88.73
2022-07-29T10:19:59.750Z,88.96
2022-07-29T10:22:51.866Z,88.47
2022-07-29T10:25:21.481Z,89.07
2022-07-29T10:27:57.110Z,88.01
2022-07-29T10:30:28.770Z,88.02
2022-07-29T10:33:23.374Z,87.56
2022-07-29T10:36:18.797Z,87.31
2022-07-29T10:39:07.890Z,86.89
2022-07-29T10:42:09.366Z,87.86
2022-07-29T10:44:43.224Z,87.39
2022-07-29T10:47:25.340Z,87.59
2022-07-29T10:50:07.449Z,87.33
2022-07-29T10:53:08.730Z,87.42
2022-07-29T10:58:37.245Z,88.13
2022-07-29T11:01:37.606Z,86.72
2022-07-29T11:04:10.042Z,88.65
2022-07-29T11:07:05.611Z,86.79
2022-07-29T11:09:38.452Z,86.92
2022-07-29T11:12:40.494Z,88.24
2022-07-29T11:15:28.466Z,88.43
2022-07-29T11:18:01.224Z,87.83
2022-07-29T11:20:47.775Z,86.62
2022-07-29T11:23:44.375Z,86.83
2022-07-29T11:26:19.430Z,87.50
2022-07-29T11:28:58.718Z,87.51
2022-07-29T11:31:45.207Z,86.67
2022-07-29T11:34:35.154Z,87.53
2022-07-29T11:37:17.739Z,86.02
2022-07-29T11:40:02.358Z,86.06
2022-07-29T11:42:41.761Z,86.02
2022-07-29T11:45:42.497Z,87.16
2022-07-29T11:48:29.686Z,86.99
2022-07-29T11:50:59.968Z,86.01
2022-07-29T11:53:32.834Z,86.41
2022-07-29T11:56:03.982Z,85.66
2022-07-29T11:58:34.970Z,86.45
2022-07-29T12:01:08.569Z,86.63
2022-07-29T12:03:39.387Z,85.28
2022-07-29T12:06:18.607Z,86.88
2022-07-29T12:08:51.609Z,86.22
2022-07-29T12:11:23.385Z,85.46
2022-07-29T12:13:55.262Z,84.96
2022-07-29T12:16:29.511Z,84.42
2022-07-29T12:19:05.196Z,84.85
2022-07-29T12:21:56.256Z,85.74
2022-07-29T12:24:27.690Z,85.38
2022-07-29T12:26:58.785Z,85.34
2022-07-29T12:29:33.760Z,83.78
2022-07-29T12:32:15.093Z,84.98
2022-07-29T12:34:50.688Z,83.67
2022-07-29T12:37:40.524Z,85.10
2022-07-29T12:40:20.314Z,84.21
2022-07-29T12:43:14.722Z,83.76
2022-07-29T12:45:52.203Z,83.82
2022-07-29T12:48:45.642Z,82.96
2022-07-29T12:51:17.558Z,81.80
2022-07-29T12:54:09.896Z,82.52
2022-07-29T12:56:43.700Z,82.02
2022-07-29T12:59:23.503Z,82.89
2022-07-29T13:01:55.545Z,83.47
2022-07-29T13:04:32.223Z,82.38
2022-07-29T13:07:10.319Z,82.26
2022-07-29T13:09:47.664Z,81.12
2022-07-29T13:12:18.394Z,83.27
2022-07-29T13:14:51.007Z,80.60
2022-07-29T13:17:25.413Z,78.90
2022-07-29T13:20:08.679Z,79.18
2022-07-29T13:22:39.493Z,79.03
2022-07-29T13:25:10.974Z,79.17
2022-07-29T13:27:42.918Z,80.08
2022-07-29T13:30:13.754Z,80.12
2022-07-29T13:32:44.159Z,80.31
2022-07-29T13:35:15.540Z,80.46
2022-07-29T13:37:46.096Z,79.74
2022-07-29T13:40:16.399Z,80.44
2022-07-29T13:42:46.778Z,80.45
2022-07-29T13:45:17.357Z,79.77
2022-07-29T13:47:49.583Z,79.18
2022-07-29T13:50:19.937Z,79.70
2022-07-29T13:52:51.223Z,79.49
2022-07-29T13:55:21.874Z,80.01
2022-07-29T13:57:51.721Z,81.37
2022-07-29T14:00:21.863Z,80.46
2022-07-29T14:02:52.512Z,80.78
2022-07-29T14:05:22.933Z,80.88
2022-07-29T14:07:53.292Z,81.12
2022-07-29T14:10:23.780Z,81.43
2022-07-29T14:12:54.068Z,80.46
2022-07-29T14:15:25.504Z,80.62
2022-07-29T14:17:55.965Z,80.56
2022-07-29T14:20:26.458Z,80.55
2022-07-29T14:22:56.826Z,80.04
2022-07-29T14:25:27.236Z,79.79
2022-07-29T14:27:58.557Z,79.55
2022-07-29T14:30:29.413Z,79.46
2022-07-29T14:32:59.866Z,78.20
2022-07-29T14:35:30.316Z,78.20
2022-07-29T14:38:00.792Z,78.77
2022-07-29T14:40:31.368Z,78.55
2022-07-29T14:43:01.145Z,79.00
2022-07-29T14:45:31.572Z,78.47
2022-07-29T14:48:04.202Z,76.75
2022-07-29T14:50:34.847Z,75.89
2022-07-29T14:53:05.969Z,78.46
2022-07-29T14:55:36.584Z,78.31
2022-07-29T14:58:12.121Z,80.38
2022-07-29T15:00:44.960Z,79.38
2022-07-29T15:03:23.017Z,80.06
2022-07-29T15:05:54.813Z,80.90
2022-07-29T15:08:26.980Z,80.61
2022-07-29T15:10:59.684Z,81.16
2022-07-29T15:13:30.201Z,80.25
2022-07-29T15:16:00.332Z,79.44
2022-07-29T15:18:30.921Z,80.44
2022-07-29T15:21:04.538Z,81.01
2022-07-29T15:23:37.632Z,81.04
2022-07-29T15:26:08.025Z,80.18
2022-07-29T15:28:38.667Z,80.37
2022-07-29T15:31:08.597Z,79.86
2022-07-29T15:33:38.706Z,78.30
2022-07-29T15:36:17.884Z,77.19
2022-07-29T15:39:07.068Z,78.82
2022-07-29T15:41:43.096Z,77.69
2022-07-29T15:44:14.897Z,77.57
2022-07-29T15:47:05.693Z,77.62
2022-07-29T15:49:48.757Z,78.15
2022-07-29T15:52:25.684Z,77.04
2022-07-29T15:54:58.304Z,77.66
2022-07-29T15:57:28.667Z,77.97
2022-07-29T15:59:59.107Z,78.47
2022-07-29T16:02:29.541Z,77.33
2022-07-29T16:05:00.161Z,76.28
2022-07-29T16:07:31.400Z,77.65
2022-07-29T16:10:03.602Z,78.79
2022-07-29T16:12:34.010Z,76.72
2022-07-29T16:15:09.413Z,77.12
2022-07-29T16:17:41.103Z,77.33
2022-07-29T16:20:13.808Z,78.23
2022-07-29T16:22:45.153Z,76.77
2022-07-29T16:25:15.755Z,76.92
2022-07-29T16:27:45.637Z,77.21
2022-07-29T16:30:15.967Z,76.94
2022-07-29T16:32:46.266Z,78.34
2022-07-29T16:35:16.918Z,78.02
2022-07-29T16:37:47.249Z,78.32
2022-07-29T16:40:17.749Z,78.14
2022-07-29T16:42:47.833Z,76.88
2022-07-29T16:45:21.166Z,77.49
2022-07-29T16:47:51.969Z,77.85
2022-07-29T16:50:23.189Z,77.62
2022-07-29T16:52:53.677Z,77.77
2022-07-29T16:55:24.755Z,78.87
2022-07-29T16:57:55.233Z,78.24
2022-07-29T17:00:25.997Z,78.01
2022-07-29T17:02:56.415Z,77.62
2022-07-29T17:05:26.967Z,79.64
2022-07-29T17:07:57.461Z,79.29
2022-07-29T17:10:31.175Z,78.14
2022-07-29T17:13:01.499Z,79.00
2022-07-29T17:15:32.028Z,78.55
2022-07-29T17:18:12.863Z,79.49
2022-07-29T17:20:44.023Z,80.15
2022-07-29T17:23:14.503Z,79.88
2022-07-29T17:25:44.438Z,80.32
2022-07-29T17:28:15.646Z,79.87
2022-07-29T17:30:46.605Z,79.75
2022-07-29T17:33:16.852Z,80.31
2022-07-29T17:36:04.894Z,80.36
2022-07-29T17:38:35.218Z,81.05
2022-07-29T17:41:08.711Z,79.46
2022-07-29T17:43:40.560Z,79.84
2022-07-29T17:46:11.351Z,79.71
2022-07-29T17:48:42.356Z,79.60
2022-07-29T17:51:13.466Z,79.74
2022-07-29T17:53:44.061Z,80.56
2022-07-29T17:56:15.905Z,79.31
2022-07-29T17:58:48.563Z,79.15
2022-07-29T18:01:19.809Z,79.99
2022-07-29T18:03:53.224Z,79.17
2022-07-29T18:06:25.013Z,78.96
2022-07-29T18:08:55.698Z,78.50
2022-07-29T18:11:26.377Z,78.50
2022-07-29T18:13:56.973Z,76.04
2022-07-29T18:16:27.110Z,77.52
2022-07-29T18:18:58.311Z,77.52
2022-07-29T18:21:45.973Z,76.83
2022-07-29T18:24:22.174Z,77.86
2022-07-29T18:26:52.234Z,77.98
2022-07-29T18:29:22.926Z,77.15
2022-07-29T18:31:53.730Z,77.89
2022-07-29T18:34:24.135Z,78.24
2022-07-29T18:36:54.859Z,78.17
2022-07-29T18:39:25.457Z,78.07
2022-07-29T18:41:55.450Z,78.70
2022-07-29T18:44:25.972Z,79.04
2022-07-29T18:46:57.782Z,77.28
2022-07-29T18:49:29.053Z,78.46
2022-07-29T18:51:59.579Z,79.66
2022-07-29T18:54:31.986Z,80.25
2022-07-29T18:57:54.211Z,80.20
2022-07-29T18:59:55.483Z,79.72
2022-07-29T19:02:26.204Z,81.07
2022-07-29T19:04:57.954Z,79.39
2022-07-29T19:07:34.672Z,80.12
2022-07-29T19:10:05.945Z,80.20
2022-07-29T19:12:42.503Z,79.56
2022-07-29T19:15:20.007Z,80.73
2022-07-29T19:18:00.848Z,80.03
2022-07-29T19:20:32.456Z,81.30
2022-07-29T19:23:05.457Z,80.04
2022-07-29T19:25:37.058Z,80.69
2022-07-29T19:28:24.515Z,80.24
2022-07-29T19:30:57.973Z,80.17
2022-07-29T19:33:29.500Z,81.41
2022-07-29T19:36:02.212Z,80.87
2022-07-29T19:38:33.207Z,80.91
2022-07-29T19:41:03.124Z,81.66
2022-07-29T19:43:51.560Z,81.92
2022-07-29T19:46:24.510Z,81.52
2022-07-29T19:48:55.083Z,82.53
2022-07-29T19:51:25.485Z,82.80
2022-07-29T19:53:55.932Z,81.96
2022-07-29T19:56:28.476Z,81.03
2022-07-29T19:58:59.753Z,82.09
2022-07-29T20:01:33.981Z,82.50
2022-07-29T20:04:04.568Z,82.63
2022-07-29T20:06:35.212Z,82.85
2022-07-29T20:09:07.320Z,82.47
2022-07-29T20:11:38.819Z,82.60
2022-07-29T20:14:09.318Z,81.44
2022-07-29T20:16:39.833Z,82.20
2022-07-29T20:19:10.693Z,83.23
2022-07-29T20:21:41.431Z,83.10
2022-07-29T20:24:11.979Z,82.89
2022-07-29T20:26:41.888Z,82.89
2022-07-29T20:29:12.360Z,82.38
2022-07-29T20:31:44.611Z,83.00
2022-07-29T20:34:22.170Z,83.46
2022-07-29T20:36:52.555Z,83.16
2022-07-29T20:39:25.677Z,83.85
2022-07-29T20:41:56.112Z,84.43
2022-07-29T20:44:26.164Z,84.35
2022-07-29T20:46:56.705Z,83.08
2022-07-29T20:49:27.407Z,85.04
2022-07-29T20:51:57.964Z,83.66
2022-07-29T20:54:28.441Z,84.35
2022-07-29T20:56:59.213Z,83.67
2022-07-29T20:59:30.432Z,84.00
2022-07-29T21:02:00.930Z,83.28
2022-07-29T21:04:32.745Z,84.80
2022-07-29T21:07:03.584Z,84.66
2022-07-29T21:09:34.236Z,84.73
2022-07-29T21:12:04.695Z,85.78
2022-07-29T21:14:37.767Z,85.10
2022-07-29T21:17:09.101Z,86.39
2022-07-29T21:19:39.621Z,85.09
2022-07-29T21:22:10.315Z,84.83
2022-07-29T21:24:40.910Z,86.16
2022-07-29T21:27:28.975Z,85.81
2022-07-29T21:29:58.851Z,85.80
2022-07-29T21:32:30.787Z,84.58
2022-07-29T21:35:01.009Z,84.79
2022-07-29T21:37:31.418Z,84.89
2022-07-29T21:40:01.948Z,85.78
2022-07-29T21:42:31.844Z,86.18
2022-07-29T21:45:02.309Z,85.49
2022-07-29T21:47:32.856Z,85.93
2022-07-29T21:50:02.850Z,86.37
2022-07-29T21:52:32.936Z,86.38
2022-07-29T21:55:03.090Z,86.05
2022-07-29T21:57:33.569Z,86.59
2022-07-29T22:00:04.050Z,86.39
2022-07-29T22:02:42.084Z,87.24
2022-07-29T22:05:13.726Z,87.22
2022-07-29T22:07:55.729Z,88.26
2022-07-29T22:10:31.778Z,86.60
2022-07-29T22:13:04.543Z,87.81
2022-07-29T22:15:35.208Z,88.30
2022-07-29T22:18:05.126Z,86.17
2022-07-29T22:20:35.656Z,87.75
2022-07-29T22:23:05.775Z,86.80
2022-07-29T22:25:35.954Z,86.01
2022-07-29T22:28:06.083Z,86.21
2022-07-29T22:30:36.397Z,86.76
2022-07-29T22:33:06.522Z,86.91
2022-07-29T22:35:37.177Z,87.21
2022-07-29T22:38:08.111Z,86.56
2022-07-29T22:40:38.784Z,87.66
2022-07-29T22:43:08.667Z,86.97
2022-07-29T22:45:38.984Z,87.48
2022-07-29T22:48:09.573Z,86.84
2022-07-29T22:50:40.388Z,87.00
2022-07-29T22:53:10.892Z,86.72
2022-07-29T22:55:41.518Z,86.20
2022-07-29T22:58:12.561Z,85.54
2022-07-29T23:00:43.497Z,85.75
2022-07-29T23:03:14.091Z,85.09
2022-07-29T23:05:44.176Z,85.49
2022-07-29T23:08:14.635Z,85.88
2022-07-29T23:10:45.076Z,85.87
2022-07-29T23:13:16.311Z,85.02
2022-07-29T23:15:46.819Z,86.34
2022-07-29T23:18:17.353Z,85.90
2022-07-29T23:20:47.349Z,85.58
2022-07-29T23:23:17.711Z,85.59
2022-07-29T23:25:48.338Z,85.33
2022-07-29T23:28:20.178Z,85.15
2022-07-29T23:30:50.837Z,85.74
2022-07-29T23:33:23.317Z,85.51
2022-07-29T23:36:02.901Z,84.81
2022-07-29T23:38:36.848Z,85.73
2022-07-29T23:41:10.254Z,85.35
2022-07-29T23:43:42.379Z,87.01
2022-07-29T23:46:13.082Z,86.96
2022-07-29T23:48:45.861Z,86.33
2022-07-29T23:51:15.838Z,86.96
2022-07-29T23:53:53.670Z,86.79
2022-07-29T23:56:25.747Z,86.70
2022-07-29T23:58:56.147Z,87.61
